Terminal Aerodrome Forecast
Issued by NWS Cleveland, OH

Home | Current Version | Previous Version | Graphics & Text | Print | Product List | Glossary On
Versions: 1 2 3 4 5 6 7 8 9 10 11 12 13 14 15 16 17 18
000
FTUS41 KCLE 241120
TAFMFD
TAF
KMFD 241120Z 2412/2512 16004KT P6SM BKN250
     FM241500 18008KT P6SM SCT045 BKN250
     FM242000 18012G18KT P6SM BKN045 OVC120
     FM242200 19012G18KT P6SM VCSH OVC045
      TEMPO 2500/2504 4SM TSRA OVC025CB
     FM250400 20010KT 5SM -SHRA BR OVC035=

USA.gov is the U.S. government's official web portal to all federal, state and local government web resources and services.